createdAt,value
2019-06-27T00:01:51.967Z,73.50
2019-06-27T00:04:55.760Z,73.40
2019-06-27T00:07:59.121Z,73.50
2019-06-27T00:11:02.531Z,74.00
2019-06-27T00:14:06.159Z,74.40
2019-06-27T00:17:09.763Z,73.80
2019-06-27T00:20:13.204Z,74.00
2019-06-27T00:23:17.005Z,74.20
2019-06-27T00:26:20.277Z,74.20
2019-06-27T00:29:23.235Z,74.40
2019-06-27T00:32:26.173Z,74.70
2019-06-27T00:35:29.143Z,74.00
2019-06-27T00:38:32.111Z,74.40
2019-06-27T00:41:35.186Z,74.20
2019-06-27T00:44:38.148Z,74.10
2019-06-27T00:47:41.097Z,74.80
2019-06-27T00:50:44.654Z,74.50
2019-06-27T00:53:47.977Z,74.50
2019-06-27T00:56:50.939Z,74.60
2019-06-27T00:59:54.664Z,74.60
2019-06-27T01:02:57.624Z,74.70
2019-06-27T01:06:00.997Z,74.80
2019-06-27T01:13:27.346Z,74.40
2019-06-27T01:16:30.759Z,74.30
2019-06-27T01:19:33.824Z,74.80
2019-06-27T01:22:36.746Z,75.30
2019-06-27T01:25:39.719Z,74.00
2019-06-27T01:28:43.325Z,74.10
2019-06-27T01:31:46.837Z,74.90
2019-06-27T01:34:50.006Z,74.40
2019-06-27T01:37:53.301Z,74.50
2019-06-27T01:40:56.275Z,74.80
2019-06-27T01:43:59.257Z,74.70
2019-06-27T01:47:03.393Z,74.90
2019-06-27T01:50:06.471Z,75.10
2019-06-27T01:53:09.700Z,75.10
2019-06-27T01:56:12.652Z,75.40
2019-06-27T01:59:15.920Z,74.80
2019-06-27T02:02:20.267Z,74.70
2019-06-27T02:05:23.355Z,76.00
2019-06-27T02:08:26.670Z,75.30
2019-06-27T02:11:29.961Z,75.00
2019-06-27T02:14:33.668Z,75.40
2019-06-27T02:17:37.033Z,75.60
2019-06-27T02:20:40.390Z,75.10
2019-06-27T02:23:43.356Z,75.30
2019-06-27T02:26:46.308Z,75.50
2019-06-27T02:29:49.287Z,75.70
2019-06-27T02:32:52.686Z,75.60
2019-06-27T02:35:55.663Z,75.90
2019-06-27T02:38:58.610Z,75.40
2019-06-27T02:42:01.542Z,75.10
2019-06-27T02:45:05.400Z,75.20
2019-06-27T02:48:08.693Z,75.80
2019-06-27T02:51:11.718Z,75.60
2019-06-27T02:54:15.364Z,75.60
2019-06-27T02:57:18.622Z,75.70
2019-06-27T03:00:21.800Z,75.80
2019-06-27T03:03:24.718Z,75.70
2019-06-27T03:06:27.710Z,75.50
2019-06-27T03:09:31.075Z,75.60
2019-06-27T03:12:34.483Z,76.30
2019-06-27T03:15:37.426Z,75.60
2019-06-27T03:18:41.019Z,75.80
2019-06-27T03:21:43.980Z,76.20
2019-06-27T03:24:46.911Z,76.40
2019-06-27T03:27:50.950Z,76.40
2019-06-27T03:30:54.223Z,76.40
2019-06-27T03:33:57.806Z,76.60
2019-06-27T03:37:00.767Z,76.90
2019-06-27T03:40:04.797Z,76.60
2019-06-27T03:43:07.749Z,76.10
2019-06-27T03:46:10.716Z,76.40
2019-06-27T03:49:14.342Z,76.50
2019-06-27T03:52:17.613Z,76.00
2019-06-27T03:55:21.006Z,76.40
2019-06-27T03:58:23.956Z,76.00
2019-06-27T04:01:27.541Z,76.20
2019-06-27T04:04:30.824Z,76.20
2019-06-27T04:07:33.927Z,75.90
2019-06-27T04:10:37.138Z,75.80
2019-06-27T04:13:40.114Z,75.90
2019-06-27T04:16:43.077Z,76.50
2019-06-27T04:19:46.066Z,76.30
2019-06-27T04:22:49.633Z,76.00
2019-06-27T04:25:52.883Z,75.80
2019-06-27T04:28:56.448Z,75.70
2019-06-27T04:32:00.023Z,75.70
2019-06-27T04:35:03.446Z,75.80
2019-06-27T04:38:06.409Z,75.90
2019-06-27T04:41:09.990Z,76.20
2019-06-27T04:44:13.262Z,76.30
2019-06-27T04:47:16.210Z,76.20
2019-06-27T04:50:19.171Z,75.70
2019-06-27T04:53:22.481Z,75.80
2019-06-27T04:56:25.911Z,76.60
2019-06-27T04:59:29.189Z,76.30
2019-06-27T05:02:32.142Z,76.60
2019-06-27T05:05:35.092Z,76.10
2019-06-27T05:08:38.453Z,75.70
2019-06-27T05:11:41.421Z,75.90
2019-06-27T05:14:44.408Z,75.40
2019-06-27T05:17:47.466Z,76.50
2019-06-27T05:20:50.551Z,76.40
2019-06-27T05:23:53.526Z,75.90
2019-06-27T05:26:57.530Z,76.10
2019-06-27T05:30:09.653Z,76.10
2019-06-27T05:33:05.852Z,76.20
2019-06-27T05:36:08.798Z,76.10
2019-06-27T05:39:11.886Z,75.30
2019-06-27T05:42:14.794Z,75.50
2019-06-27T05:45:18.479Z,75.70
2019-06-27T05:48:21.797Z,75.20
2019-06-27T05:51:24.767Z,75.30
2019-06-27T05:54:28.384Z,74.50
2019-06-27T05:57:31.692Z,75.80
2019-06-27T06:00:35.141Z,75.20
2019-06-27T06:03:38.391Z,75.00
2019-06-27T06:06:41.399Z,75.20
2019-06-27T06:09:44.807Z,75.00
2019-06-27T06:12:47.787Z,74.90
2019-06-27T06:15:51.095Z,73.90
2019-06-27T06:18:54.436Z,75.40
2019-06-27T06:21:58.039Z,74.90
2019-06-27T06:25:01.027Z,74.80
2019-06-27T06:28:04.559Z,74.60
2019-06-27T06:31:07.512Z,73.90
2019-06-27T06:34:10.466Z,74.10
2019-06-27T06:37:13.427Z,74.60
2019-06-27T06:40:16.902Z,79.90
2019-06-27T06:43:19.872Z,74.40
2019-06-27T06:46:22.827Z,75.80
2019-06-27T06:49:26.208Z,75.60
2019-06-27T06:52:29.191Z,75.70
2019-06-27T06:55:32.777Z,75.10
2019-06-27T06:58:35.764Z,75.30
2019-06-27T07:01:39.612Z,75.60
2019-06-27T07:04:42.680Z,75.50
2019-06-27T07:07:45.649Z,74.90
2019-06-27T07:10:49.319Z,74.40
2019-06-27T07:13:52.950Z,73.50
2019-06-27T07:16:55.908Z,73.70
2019-06-27T07:19:59.217Z,73.80
2019-06-27T07:23:02.715Z,72.30
2019-06-27T07:26:06.052Z,73.70
2019-06-27T07:29:09.019Z,74.30
2019-06-27T07:32:11.952Z,73.90
2019-06-27T07:35:15.344Z,74.20
2019-06-27T07:38:18.287Z,71.70
2019-06-27T07:41:21.815Z,70.10
2019-06-27T07:44:25.191Z,71.10
2019-06-27T07:47:28.387Z,73.10
2019-06-27T07:50:31.324Z,72.50
2019-06-27T07:53:34.576Z,72.40
2019-06-27T07:56:37.528Z,72.20
2019-06-27T07:59:40.946Z,71.90
2019-06-27T08:02:44.283Z,70.40
2019-06-27T08:05:47.532Z,70.40
2019-06-27T08:08:51.585Z,71.50
2019-06-27T08:11:54.679Z,72.10
2019-06-27T08:14:58.068Z,72.60
2019-06-27T08:18:01.400Z,71.10
2019-06-27T08:21:06.084Z,70.30
2019-06-27T08:24:09.381Z,72.80
2019-06-27T08:27:12.306Z,73.30
2019-06-27T08:30:15.378Z,72.20
2019-06-27T08:33:18.356Z,73.00
2019-06-27T08:36:21.642Z,72.70
2019-06-27T08:39:24.590Z,72.50
2019-06-27T08:42:27.964Z,72.00
2019-06-27T08:45:30.895Z,72.20
2019-06-27T08:48:34.208Z,71.70
2019-06-27T08:51:38.194Z,71.90
2019-06-27T08:54:41.522Z,70.80
2019-06-27T08:57:45.052Z,70.00
2019-06-27T09:00:48.069Z,72.30
2019-06-27T09:03:51.013Z,71.10
2019-06-27T09:06:54.289Z,70.10
2019-06-27T09:09:57.539Z,70.50
2019-06-27T09:13:00.815Z,70.70
2019-06-27T09:16:03.772Z,68.00
2019-06-27T09:19:06.817Z,68.30
2019-06-27T09:22:10.165Z,69.70
2019-06-27T09:25:13.650Z,69.60
2019-06-27T09:28:16.885Z,65.60
2019-06-27T09:31:20.865Z,68.90
2019-06-27T09:34:23.770Z,67.10
2019-06-27T09:37:27.037Z,66.90
2019-06-27T09:40:30.444Z,66.10
2019-06-27T09:43:33.415Z,67.70
2019-06-27T09:46:36.429Z,68.60
2019-06-27T09:49:39.716Z,67.20
2019-06-27T09:52:42.662Z,66.90
2019-06-27T09:55:47.537Z,66.30
2019-06-27T09:58:50.915Z,66.10
2019-06-27T10:01:54.170Z,63.60
2019-06-27T10:04:57.131Z,63.80
2019-06-27T10:08:00.815Z,63.60
2019-06-27T10:11:03.826Z,61.70
2019-06-27T10:14:08.663Z,61.10
2019-06-27T10:17:11.610Z,61.90
2019-06-27T10:20:15.765Z,61.00
2019-06-27T10:23:18.687Z,59.70
2019-06-27T10:26:22.330Z,61.50
2019-06-27T10:29:25.651Z,60.00
2019-06-27T10:32:28.596Z,61.50
2019-06-27T10:35:31.953Z,60.90
2019-06-27T10:38:35.325Z,62.00
2019-06-27T10:41:38.278Z,59.40
2019-06-27T10:44:42.370Z,62.20
2019-06-27T10:47:45.607Z,59.20
2019-06-27T10:50:48.563Z,61.30
2019-06-27T10:53:51.929Z,60.20
2019-06-27T10:56:54.906Z,59.50
2019-06-27T10:59:58.277Z,59.50
2019-06-27T11:03:14.300Z,58.60
2019-06-27T11:06:07.102Z,57.50
2019-06-27T11:09:13.493Z,57.60
2019-06-27T11:12:15.345Z,56.80
2019-06-27T11:15:18.414Z,56.70
2019-06-27T11:18:21.706Z,56.40
2019-06-27T11:21:24.697Z,57.10
2019-06-27T11:24:28.032Z,57.30
2019-06-27T11:27:30.974Z,56.30
2019-06-27T11:30:33.943Z,56.70
2019-06-27T11:33:37.484Z,56.90
2019-06-27T11:36:40.803Z,56.40
2019-06-27T11:39:44.097Z,55.20
2019-06-27T11:42:47.696Z,54.70
2019-06-27T11:45:51.696Z,54.50
2019-06-27T11:48:55.062Z,56.00
2019-06-27T11:51:57.993Z,55.30
2019-06-27T11:55:01.446Z,54.50
2019-06-27T11:58:04.586Z,55.70
2019-06-27T12:01:07.532Z,54.40
2019-06-27T12:04:11.121Z,53.00
2019-06-27T12:07:14.051Z,55.60
2019-06-27T12:10:17.929Z,55.20
2019-06-27T12:13:20.970Z,54.90
2019-06-27T12:16:24.056Z,53.70
2019-06-27T12:19:27.015Z,54.40
2019-06-27T12:22:30.214Z,52.70
2019-06-27T12:25:33.437Z,55.50
2019-06-27T12:28:36.379Z,54.70
2019-06-27T12:31:39.335Z,54.90
2019-06-27T12:34:42.247Z,53.80
2019-06-27T12:37:45.198Z,55.40
2019-06-27T12:40:48.152Z,53.60
2019-06-27T12:43:51.093Z,53.80
2019-06-27T12:46:54.432Z,53.10
2019-06-27T12:50:02.675Z,54.30
2019-06-27T12:53:03.574Z,52.90
2019-06-27T12:56:06.898Z,55.50
2019-06-27T12:59:09.943Z,54.20
2019-06-27T13:02:13.422Z,54.60
2019-06-27T13:05:20.288Z,54.50
2019-06-27T13:08:23.732Z,54.50
2019-06-27T13:11:27.095Z,55.00
2019-06-27T13:14:30.300Z,54.80
2019-06-27T13:17:33.572Z,54.90
2019-06-27T13:20:37.613Z,53.40
2019-06-27T13:23:41.296Z,54.60
2019-06-27T13:26:44.574Z,54.60
2019-06-27T13:29:47.503Z,53.60
2019-06-27T13:32:50.445Z,54.50
2019-06-27T13:35:53.394Z,54.80
2019-06-27T13:38:56.599Z,55.80
2019-06-27T13:41:59.990Z,55.70
2019-06-27T13:45:03.585Z,55.50
2019-06-27T13:48:06.923Z,56.30
2019-06-27T13:51:10.486Z,53.60
2019-06-27T13:54:13.582Z,56.00
2019-06-27T13:57:17.421Z,55.40
2019-06-27T14:00:35.504Z,55.30
2019-06-27T14:03:48.615Z,55.80
2019-06-27T14:06:43.761Z,55.50
2019-06-27T14:09:53.822Z,54.90
2019-06-27T14:12:52.130Z,54.60
2019-06-27T14:15:55.416Z,55.90
2019-06-27T14:18:58.533Z,55.30
2019-06-27T14:22:01.572Z,55.30
2019-06-27T14:25:04.871Z,54.70
2019-06-27T14:28:07.926Z,54.40
2019-06-27T14:31:10.964Z,53.30
2019-06-27T14:34:14.274Z,54.60
2019-06-27T14:37:17.200Z,53.70
2019-06-27T14:40:21.178Z,55.40
2019-06-27T14:43:24.097Z,54.70
2019-06-27T14:46:27.047Z,53.90
2019-06-27T14:49:30.296Z,54.70
2019-06-27T14:52:35.104Z,54.10
2019-06-27T14:55:38.249Z,54.70
2019-06-27T14:58:41.493Z,54.60
2019-06-27T15:01:44.614Z,55.00
2019-06-27T15:04:47.587Z,54.40
2019-06-27T15:07:50.542Z,54.80
2019-06-27T15:10:53.894Z,55.70
2019-06-27T15:13:58.549Z,54.40
2019-06-27T15:17:01.819Z,54.90
2019-06-27T15:20:05.210Z,55.60
2019-06-27T15:23:08.164Z,53.70
2019-06-27T15:26:13.434Z,54.30
2019-06-27T15:29:16.703Z,55.20
2019-06-27T15:32:21.165Z,56.10
2019-06-27T15:35:24.109Z,56.10
2019-06-27T15:38:27.037Z,55.10
2019-06-27T15:41:29.954Z,55.40
2019-06-27T15:44:32.902Z,54.50
2019-06-27T15:47:36.552Z,55.60
2019-06-27T15:50:39.781Z,56.40
2019-06-27T15:53:42.789Z,55.90
2019-06-27T15:56:45.788Z,55.80
2019-06-27T15:59:48.749Z,56.30
2019-06-27T16:02:52.142Z,56.40
2019-06-27T16:06:08.599Z,57.70
2019-06-27T16:09:00.361Z,57.20
2019-06-27T16:12:03.292Z,57.20
2019-06-27T16:15:06.919Z,56.70
2019-06-27T16:18:09.884Z,56.60
2019-06-27T16:21:12.859Z,57.40
2019-06-27T16:24:16.150Z,57.50
2019-06-27T16:27:19.082Z,57.80
2019-06-27T16:30:22.425Z,58.60
2019-06-27T16:33:26.382Z,58.10
2019-06-27T16:36:29.632Z,58.40
2019-06-27T16:39:32.930Z,57.50
2019-06-27T16:42:36.394Z,58.00
2019-06-27T16:45:40.744Z,58.50
2019-06-27T16:48:44.210Z,58.30
2019-06-27T16:51:47.977Z,59.10
2019-06-27T16:54:50.910Z,57.60
2019-06-27T16:57:53.878Z,58.40
2019-06-27T17:00:56.815Z,57.90
2019-06-27T17:03:59.840Z,57.30
2019-06-27T17:07:02.813Z,56.90
2019-06-27T17:10:06.901Z,56.90
2019-06-27T17:13:10.161Z,57.80
2019-06-27T17:16:13.148Z,57.60
2019-06-27T17:19:16.049Z,58.50
2019-06-27T17:22:19.312Z,58.40
2019-06-27T17:25:22.337Z,57.90
2019-06-27T17:28:25.576Z,59.20
2019-06-27T17:31:28.536Z,58.90
2019-06-27T17:34:31.477Z,58.60
2019-06-27T17:37:34.418Z,57.10
2019-06-27T17:40:37.735Z,58.20
2019-06-27T17:43:41.644Z,58.50
2019-06-27T17:46:46.542Z,59.20
2019-06-27T17:49:49.826Z,59.70
2019-06-27T17:52:53.681Z,60.50
2019-06-27T17:55:57.636Z,60.80
2019-06-27T17:59:00.973Z,61.40
2019-06-27T18:02:04.451Z,62.20
2019-06-27T18:05:07.709Z,62.30
2019-06-27T18:08:13.605Z,62.60
2019-06-27T18:11:16.692Z,61.90
2019-06-27T18:14:19.885Z,61.90
2019-06-27T18:17:33.101Z,62.00
2019-06-27T18:20:27.921Z,62.50
2019-06-27T18:23:31.063Z,62.50
2019-06-27T18:26:34.351Z,62.60
2019-06-27T18:29:37.657Z,62.60
2019-06-27T18:32:41.062Z,62.20
2019-06-27T18:35:44.186Z,62.80
2019-06-27T18:38:47.304Z,62.80
2019-06-27T18:41:50.322Z,62.80
2019-06-27T18:44:53.875Z,62.80
2019-06-27T18:47:56.914Z,62.60
2019-06-27T18:51:00.030Z,63.10
2019-06-27T18:54:03.637Z,63.30
2019-06-27T18:57:06.659Z,63.70
2019-06-27T19:00:09.919Z,63.70
2019-06-27T19:03:12.987Z,64.40
2019-06-27T19:06:16.282Z,63.80
2019-06-27T19:09:19.705Z,64.00
2019-06-27T19:12:23.159Z,64.00
2019-06-27T19:15:26.584Z,64.80
2019-06-27T19:18:49.305Z,64.80
2019-06-27T19:22:15.104Z,65.00
2019-06-27T19:25:28.963Z,65.30
2019-06-27T19:28:32.623Z,65.40
2019-06-27T19:31:36.081Z,65.30
2019-06-27T19:34:39.025Z,65.30
2019-06-27T19:37:42.796Z,65.70
2019-06-27T19:40:45.723Z,65.80
2019-06-27T19:43:57.122Z,65.90
2019-06-27T19:47:00.520Z,65.60
2019-06-27T19:50:05.134Z,65.10
2019-06-27T19:53:08.719Z,65.10
2019-06-27T19:56:11.751Z,65.00
2019-06-27T19:59:16.817Z,64.60
2019-06-27T20:02:20.098Z,64.60
2019-06-27T20:05:23.090Z,64.50
2019-06-27T20:08:26.027Z,64.20
2019-06-27T20:11:29.083Z,64.40
2019-06-27T20:14:32.178Z,64.20
2019-06-27T20:17:35.466Z,64.00
2019-06-27T20:20:38.999Z,63.00
2019-06-27T20:23:42.009Z,62.50
2019-06-27T20:26:44.980Z,63.30
2019-06-27T20:29:48.025Z,62.20
2019-06-27T20:32:51.788Z,62.10
2019-06-27T20:35:54.845Z,62.40
2019-06-27T20:38:58.253Z,62.30
2019-06-27T20:42:01.282Z,62.90
2019-06-27T20:54:01.633Z,62.40
2019-06-27T20:57:05.800Z,62.80
2019-06-27T21:00:12.223Z,62.80
2019-06-27T21:03:16.126Z,62.70
2019-06-27T21:06:32.179Z,63.40
2019-06-27T21:09:47.826Z,63.20
2019-06-27T21:13:04.202Z,62.70
2019-06-27T21:16:16.432Z,63.00
2019-06-27T21:19:20.206Z,63.10
2019-06-27T21:22:32.591Z,63.20
2019-06-27T21:26:01.914Z,63.90
2019-06-27T21:29:24.192Z,63.30
2019-06-27T21:32:34.171Z,63.30
2019-06-27T21:35:54.033Z,63.30
2019-06-27T21:39:07.493Z,63.90
2019-06-27T21:42:04.286Z,64.10
2019-06-27T21:45:09.113Z,63.90
2019-06-27T21:48:25.293Z,63.50
2019-06-27T21:51:49.091Z,64.10
2019-06-27T21:56:14.640Z,64.60
2019-06-27T22:03:46.233Z,64.70
2019-06-27T22:06:54.170Z,64.90
2019-06-27T22:11:04.116Z,65.10
2019-06-27T22:14:07.306Z,65.20
2019-06-27T22:17:12.490Z,66.00
2019-06-27T22:20:17.583Z,65.00
2019-06-27T22:23:21.103Z,64.80
2019-06-27T22:26:24.335Z,64.70
2019-06-27T22:29:27.800Z,65.00
2019-06-27T22:32:31.231Z,65.40
2019-06-27T22:35:35.116Z,65.40
2019-06-27T22:39:00.204Z,65.30
2019-06-27T22:42:24.598Z,65.20
2019-06-27T22:45:50.500Z,65.00
2019-06-27T22:49:03.699Z,65.50
2019-06-27T22:52:49.955Z,65.80
2019-06-27T22:56:41.955Z,66.20
2019-06-27T23:14:49.719Z,66.60
2019-06-27T23:18:18.050Z,67.00
2019-06-27T23:21:32.853Z,66.30
2019-06-27T23:24:58.494Z,66.10
2019-06-27T23:28:09.602Z,65.70
2019-06-27T23:31:24.163Z,66.60
2019-06-27T23:34:29.968Z,66.20
2019-06-27T23:37:33.862Z,66.50
2019-06-27T23:40:37.844Z,66.90
2019-06-27T23:43:44.484Z,66.40
2019-06-27T23:46:48.163Z,66.70
2019-06-27T23:49:52.526Z,67.00
2019-06-27T23:53:00.132Z,66.70
2019-06-27T23:56:10.125Z,66.80
2019-06-27T23:59:14.051Z,66.70
